createdAt,value
2023-02-23T00:02:18.330Z,9.22
2023-02-23T00:04:44.921Z,9.34
2023-02-23T00:07:11.632Z,8.78
2023-02-23T00:09:38.266Z,8.32
2023-02-23T00:12:09.798Z,8.94
2023-02-23T00:14:38.350Z,8.54
2023-02-23T00:17:05.641Z,8.99
2023-02-23T00:19:33.695Z,9.14
2023-02-23T00:22:01.284Z,8.95
2023-02-23T00:24:28.058Z,9.26
2023-02-23T00:26:54.682Z,9.21
2023-02-23T00:29:27.691Z,8.78
2023-02-23T00:31:56.241Z,9.24
2023-02-23T00:34:23.842Z,9.05
2023-02-23T00:36:56.375Z,9.02
2023-02-23T00:39:29.154Z,8.48
2023-02-23T00:41:57.106Z,8.75
2023-02-23T00:44:24.750Z,9.26
2023-02-23T00:46:52.588Z,8.65
2023-02-23T00:49:21.041Z,9.04
2023-02-23T00:51:48.149Z,8.48
2023-02-23T00:54:16.493Z,9.21
2023-02-23T00:56:43.316Z,9.12
2023-02-23T00:59:10.553Z,9.17
2023-02-23T01:01:38.565Z,9.00
2023-02-23T01:04:07.230Z,9.04
2023-02-23T01:06:34.623Z,8.77
2023-02-23T01:09:05.473Z,8.63
2023-02-23T01:11:32.029Z,8.88
2023-02-23T01:14:00.985Z,8.68
2023-02-23T01:16:31.427Z,8.60
2023-02-23T01:19:03.652Z,9.14
2023-02-23T01:21:33.545Z,9.19
2023-02-23T01:24:01.180Z,9.08
2023-02-23T01:26:36.740Z,9.14
2023-02-23T01:29:11.524Z,8.63
2023-02-23T01:31:40.330Z,8.50
2023-02-23T01:34:07.566Z,8.27
2023-02-23T01:36:36.764Z,9.13
2023-02-23T01:39:07.649Z,8.20
2023-02-23T01:41:36.542Z,9.09
2023-02-23T01:44:08.883Z,9.09
2023-02-23T01:46:40.827Z,8.93
2023-02-23T01:49:15.600Z,8.76
2023-02-23T01:51:50.119Z,9.01
2023-02-23T01:54:21.592Z,8.81
2023-02-23T01:56:58.329Z,8.69
2023-02-23T01:59:34.296Z,8.45
2023-02-23T02:02:01.327Z,8.84
2023-02-23T02:04:29.097Z,8.77
2023-02-23T02:06:56.846Z,8.66
2023-02-23T02:09:27.917Z,8.79
2023-02-23T02:11:54.495Z,8.55
2023-02-23T02:14:23.546Z,8.00
2023-02-23T02:17:32.435Z,8.76
2023-02-23T02:20:41.126Z,8.73
2023-02-23T02:23:50.482Z,8.72
2023-02-23T02:26:41.352Z,8.71
2023-02-23T02:29:45.635Z,8.69
2023-02-23T02:32:24.389Z,8.70
2023-02-23T02:35:20.574Z,8.69
2023-02-23T02:37:57.042Z,8.66
2023-02-23T02:40:33.298Z,8.04
2023-02-23T02:43:11.525Z,8.53
2023-02-23T02:45:50.906Z,8.51
2023-02-23T02:48:49.359Z,8.53
2023-02-23T02:51:31.936Z,8.15
2023-02-23T02:54:11.308Z,8.55
2023-02-23T02:56:41.961Z,8.21
2023-02-23T02:59:34.568Z,8.55
2023-02-23T03:02:21.229Z,8.53
2023-02-23T03:05:06.628Z,7.87
2023-02-23T03:08:09.248Z,8.08
2023-02-23T03:11:28.227Z,8.42
2023-02-23T03:14:35.741Z,8.47
2023-02-23T03:17:29.917Z,8.47
2023-02-23T03:20:41.906Z,8.39
2023-02-23T03:23:40.182Z,8.47
2023-02-23T03:26:33.461Z,8.43
2023-02-23T03:29:31.330Z,8.37
2023-02-23T03:32:33.928Z,7.55
2023-02-23T03:35:28.300Z,7.78
2023-02-23T03:38:24.267Z,8.31
2023-02-23T03:41:11.547Z,8.35
2023-02-23T03:44:09.502Z,8.29
2023-02-23T03:46:57.124Z,7.70
2023-02-23T03:49:46.381Z,8.52
2023-02-23T03:52:43.212Z,8.43
2023-02-23T03:55:36.048Z,8.13
2023-02-23T03:58:24.554Z,8.55
2023-02-23T04:01:12.148Z,8.37
2023-02-23T04:04:01.435Z,7.93
2023-02-23T04:06:50.749Z,8.54
2023-02-23T04:09:35.940Z,7.83
2023-02-23T04:12:39.916Z,8.54
2023-02-23T04:15:18.444Z,8.52
2023-02-23T04:17:45.693Z,7.92
2023-02-23T04:20:14.037Z,8.37
2023-02-23T04:22:40.781Z,8.53
2023-02-23T04:25:09.145Z,7.98
2023-02-23T04:27:36.900Z,7.80
2023-02-23T04:30:05.105Z,8.49
2023-02-23T04:32:32.278Z,7.78
2023-02-23T04:34:59.051Z,8.37
2023-02-23T04:37:25.755Z,7.80
2023-02-23T04:39:52.571Z,8.26
2023-02-23T04:42:19.381Z,8.55
2023-02-23T04:44:46.072Z,7.77
2023-02-23T04:47:15.353Z,8.54
2023-02-23T04:49:42.949Z,7.89
2023-02-23T04:52:09.518Z,8.43
2023-02-23T04:54:39.863Z,7.79
2023-02-23T04:57:06.889Z,8.30
2023-02-23T04:59:33.763Z,8.20
2023-02-23T05:02:00.474Z,7.36
2023-02-23T05:04:27.230Z,8.58
2023-02-23T05:06:54.083Z,7.74
2023-02-23T05:09:20.696Z,8.58
2023-02-23T05:11:47.471Z,8.44
2023-02-23T05:14:14.154Z,8.38
2023-02-23T05:16:40.711Z,8.37
2023-02-23T05:19:07.424Z,8.40
2023-02-23T05:21:34.067Z,7.76
2023-02-23T05:24:00.728Z,8.54
2023-02-23T05:26:27.293Z,8.07
2023-02-23T05:28:55.155Z,8.55
2023-02-23T05:31:22.279Z,8.13
2023-02-23T05:33:49.241Z,8.56
2023-02-23T05:36:17.736Z,6.71
2023-02-23T05:38:46.299Z,8.38
2023-02-23T05:41:15.390Z,8.41
2023-02-23T05:43:42.336Z,8.13
2023-02-23T05:46:10.840Z,8.32
2023-02-23T05:48:37.541Z,6.72
2023-02-23T05:51:10.538Z,8.26
2023-02-23T05:53:37.703Z,8.54
2023-02-23T05:56:07.512Z,8.56
2023-02-23T05:58:35.071Z,8.27
2023-02-23T06:01:02.336Z,8.12
2023-02-23T06:03:29.100Z,8.15
2023-02-23T06:05:58.779Z,8.24
2023-02-23T06:08:26.535Z,8.33
2023-02-23T06:10:53.698Z,8.30
2023-02-23T06:13:21.542Z,7.76
2023-02-23T06:15:49.715Z,8.37
2023-02-23T06:18:17.772Z,8.29
2023-02-23T06:20:46.071Z,7.41
2023-02-23T06:23:13.647Z,8.28
2023-02-23T06:25:41.110Z,8.43
2023-02-23T06:28:09.051Z,8.41
2023-02-23T06:30:36.128Z,8.53
2023-02-23T06:33:02.870Z,8.64
2023-02-23T06:35:29.762Z,8.49
2023-02-23T06:37:57.160Z,8.21
2023-02-23T06:40:24.102Z,8.67
2023-02-23T06:42:50.971Z,8.03
2023-02-23T06:45:19.317Z,8.03
2023-02-23T06:47:47.315Z,6.81
2023-02-23T06:50:15.509Z,8.68
2023-02-23T06:52:42.171Z,7.54
2023-02-23T06:55:09.669Z,8.09
2023-02-23T06:57:36.340Z,8.25
2023-02-23T07:00:03.725Z,8.43
2023-02-23T07:02:30.406Z,8.76
2023-02-23T07:04:57.164Z,8.40
2023-02-23T07:07:23.809Z,8.08
2023-02-23T07:09:50.423Z,8.60
2023-02-23T07:12:17.098Z,8.53
2023-02-23T07:14:43.874Z,8.42
2023-02-23T07:17:12.606Z,8.23
2023-02-23T07:19:39.433Z,8.29
2023-02-23T07:22:06.129Z,8.54
2023-02-23T07:24:32.792Z,8.68
2023-02-23T07:26:59.461Z,8.64
2023-02-23T07:29:28.261Z,8.36
2023-02-23T07:31:55.522Z,8.72
2023-02-23T07:34:22.264Z,8.75
2023-02-23T07:36:48.992Z,8.57
2023-02-23T07:39:16.011Z,8.97
2023-02-23T07:41:42.610Z,8.15
2023-02-23T07:44:09.549Z,9.01
2023-02-23T07:46:36.352Z,9.03
2023-02-23T07:49:03.640Z,8.01
2023-02-23T07:51:30.284Z,9.09
2023-02-23T07:53:56.853Z,8.78
2023-02-23T07:56:23.514Z,8.39
2023-02-23T07:58:50.257Z,8.86
2023-02-23T08:01:19.824Z,9.24
2023-02-23T08:03:49.874Z,8.96
2023-02-23T08:06:18.382Z,9.37
2023-02-23T08:08:45.214Z,9.18
2023-02-23T08:11:12.304Z,8.89
2023-02-23T08:13:39.085Z,9.28
2023-02-23T08:16:05.924Z,9.27
2023-02-23T08:18:33.009Z,9.61
2023-02-23T08:21:04.297Z,9.14
2023-02-23T08:23:32.446Z,9.15
2023-02-23T08:26:00.005Z,9.57
2023-02-23T08:28:27.902Z,9.38
2023-02-23T08:30:54.916Z,9.44
2023-02-23T08:33:22.372Z,9.48
2023-02-23T08:35:48.962Z,8.16
2023-02-23T08:38:16.701Z,9.33
2023-02-23T08:40:43.526Z,9.28
2023-02-23T08:43:10.471Z,9.43
2023-02-23T08:45:39.737Z,9.28
2023-02-23T08:48:08.958Z,9.29
2023-02-23T08:50:35.704Z,9.37
2023-02-23T08:53:02.510Z,8.96
2023-02-23T08:55:29.085Z,9.78
2023-02-23T08:57:55.760Z,9.46
2023-02-23T09:00:22.991Z,9.78
2023-02-23T09:02:49.826Z,9.28
2023-02-23T09:05:17.032Z,9.65
2023-02-23T09:07:50.533Z,9.69
2023-02-23T09:10:20.420Z,9.54
2023-02-23T09:12:47.114Z,8.90
2023-02-23T09:15:13.777Z,9.64
2023-02-23T09:17:42.961Z,9.33
2023-02-23T09:20:13.723Z,9.68
2023-02-23T09:22:42.107Z,9.71
2023-02-23T09:25:10.575Z,9.52
2023-02-23T09:27:37.172Z,9.67
2023-02-23T09:30:04.988Z,9.42
2023-02-23T09:32:31.790Z,9.35
2023-02-23T09:34:58.519Z,9.50
2023-02-23T09:37:25.251Z,9.24
2023-02-23T09:39:52.029Z,9.29
2023-02-23T09:42:36.974Z,9.70
2023-02-23T09:45:06.894Z,8.82
2023-02-23T09:47:41.234Z,9.98
2023-02-23T09:50:29.662Z,9.91
2023-02-23T09:53:15.676Z,10.12
2023-02-23T09:55:43.819Z,9.78
2023-02-23T09:58:26.816Z,9.94
2023-02-23T10:01:22.682Z,10.73
2023-02-23T10:03:55.960Z,10.74
2023-02-23T10:06:23.648Z,10.49
2023-02-23T10:09:00.812Z,10.47
2023-02-23T10:11:35.823Z,10.99
2023-02-23T10:14:03.588Z,11.11
2023-02-23T10:17:07.619Z,11.25
2023-02-23T10:20:04.662Z,11.21
2023-02-23T10:22:35.113Z,11.04
2023-02-23T10:25:30.531Z,11.21
2023-02-23T10:27:58.913Z,10.98
2023-02-23T10:30:31.087Z,10.58
2023-02-23T10:33:03.535Z,10.89
2023-02-23T10:35:31.156Z,9.58
2023-02-23T10:37:59.840Z,10.43
2023-02-23T10:40:28.974Z,10.17
2023-02-23T10:42:58.742Z,9.90
2023-02-23T10:45:27.347Z,11.33
2023-02-23T10:48:09.134Z,11.25
2023-02-23T10:50:39.318Z,10.79
2023-02-23T10:53:20.353Z,11.10
2023-02-23T10:55:59.782Z,11.20
2023-02-23T10:58:26.733Z,10.98
2023-02-23T11:01:00.150Z,11.10
2023-02-23T11:03:38.942Z,10.60
2023-02-23T11:06:06.953Z,11.16
2023-02-23T11:08:34.835Z,11.38
2023-02-23T11:11:26.322Z,11.54
2023-02-23T11:13:52.995Z,11.58
2023-02-23T11:16:23.121Z,11.50
2023-02-23T11:18:57.567Z,11.50
2023-02-23T11:21:29.963Z,11.10
2023-02-23T11:23:59.746Z,11.09
2023-02-23T11:26:36.055Z,10.99
2023-02-23T11:29:16.379Z,11.01
2023-02-23T11:31:49.772Z,11.46
2023-02-23T11:34:41.023Z,11.52
2023-02-23T11:37:31.323Z,11.98
2023-02-23T11:40:04.597Z,11.79
2023-02-23T11:42:35.533Z,11.37
2023-02-23T11:45:09.760Z,12.44
2023-02-23T11:47:40.613Z,11.95
2023-02-23T11:50:11.017Z,11.71
2023-02-23T11:52:37.580Z,12.34
2023-02-23T11:55:07.761Z,12.32
2023-02-23T11:57:36.446Z,12.33
2023-02-23T12:00:22.190Z,11.06
2023-02-23T12:02:59.285Z,11.33
2023-02-23T12:05:31.322Z,11.59
2023-02-23T12:08:07.000Z,10.20
2023-02-23T12:10:54.218Z,11.86
2023-02-23T12:13:30.438Z,11.66
2023-02-23T12:16:03.625Z,11.42
2023-02-23T12:19:24.561Z,12.15
2023-02-23T12:22:09.714Z,12.12
2023-02-23T12:24:47.779Z,12.04
2023-02-23T12:27:19.701Z,11.39
2023-02-23T12:30:15.576Z,11.82
2023-02-23T12:32:49.591Z,11.69
2023-02-23T12:35:19.693Z,11.66
2023-02-23T12:38:02.656Z,11.25
2023-02-23T12:40:36.049Z,11.30
2023-02-23T12:43:12.144Z,10.90
2023-02-23T12:45:45.469Z,11.29
2023-02-23T12:48:25.739Z,11.60
2023-02-23T12:50:55.364Z,11.21
2023-02-23T12:53:37.885Z,11.70
2023-02-23T12:56:35.808Z,11.84
2023-02-23T12:59:26.289Z,11.79
2023-02-23T13:01:59.714Z,11.77
2023-02-23T13:05:16.334Z,11.62
2023-02-23T13:07:59.257Z,11.35
2023-02-23T13:11:33.138Z,11.50
2023-02-23T13:14:20.770Z,11.30
2023-02-23T13:16:56.609Z,11.32
2023-02-23T13:19:32.278Z,11.34
2023-02-23T13:22:20.288Z,11.48
2023-02-23T13:24:51.525Z,10.86
2023-02-23T13:27:35.005Z,10.94
2023-02-23T13:30:04.180Z,11.49
2023-02-23T13:32:34.452Z,10.54
2023-02-23T13:35:03.459Z,10.48
2023-02-23T13:37:52.080Z,11.51
2023-02-23T13:40:43.065Z,11.53
2023-02-23T13:43:38.873Z,11.53
2023-02-23T13:46:30.684Z,11.64
2023-02-23T13:49:15.500Z,11.79
2023-02-23T13:51:47.548Z,11.38
2023-02-23T13:54:14.786Z,12.06
2023-02-23T13:56:44.801Z,11.80
2023-02-23T13:59:18.437Z,11.56
2023-02-23T14:01:49.175Z,11.54
2023-02-23T14:04:48.076Z,12.08
2023-02-23T14:07:25.434Z,12.25
2023-02-23T14:10:07.131Z,12.25
2023-02-23T14:12:38.510Z,12.30
2023-02-23T14:15:28.377Z,12.28
2023-02-23T14:18:00.489Z,11.37
2023-02-23T14:20:42.992Z,12.28
2023-02-23T14:23:19.813Z,12.61
2023-02-23T14:25:54.624Z,12.94
2023-02-23T14:28:32.739Z,12.97
2023-02-23T14:30:59.419Z,12.85
2023-02-23T14:33:50.222Z,12.68
2023-02-23T14:36:22.695Z,12.69
2023-02-23T14:39:17.691Z,12.35
2023-02-23T14:42:00.025Z,12.52
2023-02-23T14:44:32.389Z,12.11
2023-02-23T14:47:17.837Z,12.76
2023-02-23T14:49:47.981Z,12.27
2023-02-23T14:52:22.230Z,12.67
2023-02-23T14:54:48.911Z,12.42
2023-02-23T14:57:21.766Z,12.56
2023-02-23T15:00:00.130Z,12.23
2023-02-23T15:02:29.740Z,12.45
2023-02-23T15:04:56.925Z,12.50
2023-02-23T15:07:38.568Z,12.41
2023-02-23T15:10:30.707Z,12.24
2023-02-23T15:12:58.552Z,12.21
2023-02-23T15:15:27.022Z,11.93
2023-02-23T15:17:56.385Z,12.20
2023-02-23T15:20:28.959Z,12.22
2023-02-23T15:22:59.436Z,12.21
2023-02-23T15:25:34.681Z,12.09
2023-02-23T15:28:19.133Z,11.94
2023-02-23T15:30:48.003Z,11.91
2023-02-23T15:33:23.579Z,12.01
2023-02-23T15:36:08.992Z,11.99
2023-02-23T15:38:48.228Z,11.80
2023-02-23T15:41:29.369Z,11.54
2023-02-23T15:44:16.076Z,11.31
2023-02-23T15:46:45.787Z,11.31
2023-02-23T15:49:20.008Z,11.64
2023-02-23T15:51:53.178Z,11.82
2023-02-23T15:54:27.132Z,11.70
2023-02-23T15:57:02.076Z,11.60
2023-02-23T15:59:34.498Z,11.64
2023-02-23T16:02:10.764Z,10.90
2023-02-23T16:04:48.769Z,11.44
2023-02-23T16:07:20.892Z,11.57
2023-02-23T16:09:50.292Z,11.44
2023-02-23T16:12:33.330Z,11.58
2023-02-23T16:15:20.267Z,11.21
2023-02-23T16:17:53.768Z,11.27
2023-02-23T16:20:41.529Z,11.78
2023-02-23T16:23:28.569Z,11.23
2023-02-23T16:26:02.495Z,11.76
2023-02-23T16:28:33.860Z,11.67
2023-02-23T16:31:03.169Z,10.95
2023-02-23T16:33:40.637Z,11.54
2023-02-23T16:36:10.198Z,11.93
2023-02-23T16:38:39.417Z,11.84
2023-02-23T16:41:15.712Z,11.55
2023-02-23T16:43:42.679Z,11.57
2023-02-23T16:46:09.508Z,11.15
2023-02-23T16:48:36.398Z,10.88
2023-02-23T16:51:03.355Z,10.67
2023-02-23T16:53:30.014Z,10.99
2023-02-23T16:56:01.108Z,11.25
2023-02-23T16:58:30.611Z,11.36
2023-02-23T17:00:57.340Z,11.33
2023-02-23T17:03:27.073Z,10.64
2023-02-23T17:05:54.606Z,11.14
2023-02-23T17:08:22.068Z,11.16
2023-02-23T17:10:51.784Z,10.74
2023-02-23T17:13:21.053Z,10.88
2023-02-23T17:15:51.792Z,10.34
2023-02-23T17:18:20.451Z,11.06
2023-02-23T17:20:47.193Z,10.69
2023-02-23T17:23:13.886Z,11.08
2023-02-23T17:25:40.566Z,10.26
2023-02-23T17:28:17.042Z,10.80
2023-02-23T17:30:46.064Z,10.54
2023-02-23T17:33:13.060Z,10.49
2023-02-23T17:35:39.776Z,10.72
2023-02-23T17:38:07.666Z,10.65
2023-02-23T17:40:36.583Z,10.56
2023-02-23T17:43:07.537Z,10.97
2023-02-23T17:45:34.415Z,10.38
2023-02-23T17:48:01.114Z,10.93
2023-02-23T17:50:28.116Z,9.92
2023-02-23T17:52:55.435Z,10.70
2023-02-23T17:55:23.232Z,10.74
2023-02-23T17:57:50.021Z,11.00
2023-02-23T18:00:19.941Z,9.23
2023-02-23T18:02:47.232Z,10.38
2023-02-23T18:05:14.591Z,10.79
2023-02-23T18:07:41.397Z,9.14
2023-02-23T18:10:09.349Z,10.86
2023-02-23T18:12:36.048Z,10.18
2023-02-23T18:15:02.773Z,10.46
2023-02-23T18:17:58.543Z,10.80
2023-02-23T18:20:26.362Z,9.15
2023-02-23T18:22:52.968Z,10.77
2023-02-23T18:25:21.633Z,9.95
2023-02-23T18:27:50.479Z,9.83
2023-02-23T18:30:17.229Z,9.60
2023-02-23T18:32:44.090Z,9.22
2023-02-23T18:35:11.115Z,9.75
2023-02-23T18:37:37.905Z,10.54
2023-02-23T18:40:05.567Z,10.00
2023-02-23T18:42:32.490Z,10.39
2023-02-23T18:44:59.387Z,10.15
2023-02-23T18:47:26.461Z,10.37
2023-02-23T18:49:53.387Z,9.84
2023-02-23T18:52:20.250Z,10.18
2023-02-23T18:54:47.049Z,10.13
2023-02-23T18:57:14.004Z,10.45
2023-02-23T18:59:40.975Z,8.98
2023-02-23T19:02:08.264Z,10.37
2023-02-23T19:04:36.791Z,10.14
2023-02-23T19:07:03.989Z,10.35
2023-02-23T19:09:33.520Z,10.39
2023-02-23T19:12:00.646Z,8.69
2023-02-23T19:14:46.669Z,9.33
2023-02-23T19:17:15.448Z,9.52
2023-02-23T19:19:42.633Z,9.29
2023-02-23T19:22:09.545Z,9.97
2023-02-23T19:24:37.239Z,9.53
2023-02-23T19:27:05.312Z,9.23
2023-02-23T19:29:33.012Z,10.26
2023-02-23T19:32:00.595Z,8.86
2023-02-23T19:34:28.134Z,9.55
2023-02-23T19:36:55.028Z,9.95
2023-02-23T19:39:22.144Z,10.27
2023-02-23T19:41:49.818Z,10.21
2023-02-23T19:44:16.789Z,9.41
2023-02-23T19:46:44.862Z,9.53
2023-02-23T19:49:13.358Z,10.25
2023-02-23T19:51:40.400Z,10.01
2023-02-23T19:54:09.168Z,10.32
2023-02-23T19:56:36.190Z,10.32
2023-02-23T19:59:04.264Z,9.23
2023-02-23T20:01:31.713Z,10.31
2023-02-23T20:04:06.908Z,9.74
2023-02-23T20:06:40.096Z,8.79
2023-02-23T20:09:09.344Z,9.66
2023-02-23T20:11:36.403Z,9.19
2023-02-23T20:14:05.714Z,8.43
2023-02-23T20:16:35.645Z,10.24
2023-02-23T20:19:04.002Z,10.18
2023-02-23T20:21:33.632Z,9.60
2023-02-23T20:24:06.977Z,8.92
2023-02-23T20:26:37.740Z,9.61
2023-02-23T20:29:14.509Z,9.37
2023-02-23T20:31:51.608Z,9.06
2023-02-23T20:34:24.124Z,8.92
2023-02-23T20:36:51.557Z,10.01
2023-02-23T20:39:19.245Z,9.92
2023-02-23T20:41:48.021Z,9.95
2023-02-23T20:44:16.298Z,8.32
2023-02-23T20:46:45.093Z,9.81
2023-02-23T20:49:15.903Z,9.89
2023-02-23T20:51:46.518Z,9.12
2023-02-23T20:54:13.978Z,9.83
2023-02-23T20:56:41.950Z,9.82
2023-02-23T20:59:12.142Z,9.82
2023-02-23T21:01:42.851Z,9.70
2023-02-23T21:04:09.682Z,9.46
2023-02-23T21:06:36.415Z,9.68
2023-02-23T21:09:05.893Z,9.80
2023-02-23T21:11:33.078Z,9.67
2023-02-23T21:14:00.349Z,9.48
2023-02-23T21:16:28.015Z,8.49
2023-02-23T21:19:04.344Z,9.38
2023-02-23T21:21:58.478Z,9.74
2023-02-23T21:24:26.450Z,9.93
2023-02-23T21:26:53.171Z,9.94
2023-02-23T21:29:30.872Z,9.71
2023-02-23T21:31:57.669Z,9.10
2023-02-23T21:34:24.485Z,9.37
2023-02-23T21:36:52.744Z,9.90
2023-02-23T21:39:19.491Z,8.87
2023-02-23T21:41:46.231Z,9.53
2023-02-23T21:44:12.874Z,9.73
2023-02-23T21:46:40.619Z,9.28
2023-02-23T21:49:09.859Z,9.28
2023-02-23T21:51:37.122Z,9.64
2023-02-23T21:54:04.288Z,8.75
2023-02-23T21:56:32.865Z,8.70
2023-02-23T21:59:00.028Z,7.89
2023-02-23T22:01:34.764Z,8.70
2023-02-23T22:04:01.901Z,8.61
2023-02-23T22:06:37.232Z,8.48
2023-02-23T22:09:05.620Z,9.47
2023-02-23T22:11:36.444Z,9.26
2023-02-23T22:14:06.714Z,9.40
2023-02-23T22:16:38.397Z,8.47
2023-02-23T22:19:06.470Z,7.78
2023-02-23T22:21:36.477Z,9.05
2023-02-23T22:24:05.598Z,9.49
2023-02-23T22:26:34.669Z,8.99
2023-02-23T22:29:01.652Z,9.54
2023-02-23T22:31:31.901Z,9.04
2023-02-23T22:33:58.717Z,8.71
2023-02-23T22:36:25.442Z,8.53
2023-02-23T22:38:52.271Z,9.29
2023-02-23T22:41:19.535Z,7.57
2023-02-23T22:43:47.366Z,8.73
2023-02-23T22:46:16.389Z,9.05
2023-02-23T22:48:47.258Z,8.40
2023-02-23T22:51:16.067Z,8.92
2023-02-23T22:53:43.622Z,8.96
2023-02-23T22:56:10.643Z,8.29
2023-02-23T22:58:37.521Z,8.72
2023-02-23T23:01:06.433Z,8.41
2023-02-23T23:03:41.667Z,7.84
2023-02-23T23:06:11.020Z,8.73
2023-02-23T23:08:42.988Z,8.93
2023-02-23T23:11:15.647Z,7.89
2023-02-23T23:13:48.641Z,8.62
2023-02-23T23:16:31.405Z,7.95
2023-02-23T23:19:02.866Z,7.30
2023-02-23T23:21:32.059Z,8.55
2023-02-23T23:24:01.557Z,8.46
2023-02-23T23:26:28.964Z,9.08
2023-02-23T23:28:58.411Z,7.96
2023-02-23T23:31:29.718Z,8.88
2023-02-23T23:34:00.163Z,8.29
2023-02-23T23:36:32.692Z,8.55
2023-02-23T23:39:01.376Z,8.92
2023-02-23T23:41:35.581Z,8.20
2023-02-23T23:44:05.382Z,8.30
2023-02-23T23:46:38.522Z,8.37
2023-02-23T23:49:08.412Z,8.35
2023-02-23T23:51:39.025Z,8.36
2023-02-23T23:54:08.216Z,8.95
2023-02-23T23:56:39.179Z,8.95
2023-02-23T23:59:08.511Z,8.61
